Lake County Unofficial Weather Historical Data
 
Daily Summary for August 19, 2017 Units:  English    Metric   Both
« Previous Day
Next Day »
Daily Weekly Monthly Yearly Custom
  Current: High: Low: Average:
Temperature: 61.0 °F 65.5 °F 60.8 °F 62.6 °F
Dew Point: 58.4 °F 59.2 °F 57.8 °F 58.5 °F
Humidity: 91 % 91 % 80 % 87 %
Wind Speed: 0.0 mph 2.3 mph 0.0 mph 0.4 mph
Wind Gust: 0.0 mph 2.3 mph - -
Wind:Calm - - SSE
Pressure: 29.89 in 29.89 in 29.87 in -
Precipitation: 0.00 in      
Historical Graphs
 
 
Tabular Data for August 19, 2017
Time Temperature Dew Point Pressure Wind Wind Speed Wind Gust Humidity Rainfall Rate (Hourly) solar Conditions
00:04 65.5 °F 59.2 °F 29.87 in Calm     80 % 0.00 in 0.0 W/m2 CLR
00:09 65.3 °F 59.0 °F 29.87 in Calm     80 % 0.00 in 0.0 W/m2 CLR
00:14 65.1 °F 59.1 °F 29.87 in Calm     81 % 0.00 in 0.0 W/m2 CLR
00:19 64.9 °F 58.9 °F 29.87 in Calm     81 % 0.00 in 0.0 W/m2 CLR
00:24 64.6 °F 58.6 °F 29.87 in Calm     81 % 0.00 in 0.0 W/m2 CLR
00:29 64.4 °F 58.4 °F 29.87 in Calm     81 % 0.00 in 0.0 W/m2 CLR
00:34 64.0 °F 58.1 °F 29.87 in Calm     81 % 0.00 in 0.0 W/m2 CLR
00:39 63.9 °F 58.0 °F 29.87 in Calm     81 % 0.00 in 0.0 W/m2 CLR
00:44 63.7 °F 57.8 °F 29.87 in Calm     81 % 0.00 in 0.0 W/m2 CLR
00:49 63.5 °F 58.2 °F 29.87 in Calm     83 % 0.00 in 0.0 W/m2 CLR
00:54 63.5 °F 58.6 °F 29.87 in Calm     84 % 0.00 in 0.0 W/m2 CLR
00:59 63.3 °F 58.4 °F 29.87 in Calm     84 % 0.00 in 0.0 W/m2 CLR
01:04 63.1 °F 58.2 °F 29.87 in Calm     84 % 0.00 in 0.0 W/m2 CLR
01:09 63.1 °F 58.5 °F 29.87 in Calm     85 % 0.00 in 0.0 W/m2 CLR
01:14 63.1 °F 58.5 °F 29.87 in Calm     85 % 0.00 in 0.0 W/m2 CLR
01:19 63.1 °F 58.5 °F 29.87 in Calm     85 % 0.00 in 0.0 W/m2 CLR
01:24 63.0 °F 58.4 °F 29.87 in Calm     85 % 0.00 in 0.0 W/m2 CLR
01:29 63.1 °F 58.5 °F 29.87 in Calm     85 % 0.00 in 0.0 W/m2 CLR
01:34 63.1 °F 58.5 °F 29.87 in Calm   0.3 mph 85 % 0.00 in 0.0 W/m2 CLR
01:39 63.1 °F 58.5 °F 29.87 in SE 1.2 mph   85 % 0.00 in 0.0 W/m2 CLR
01:44 63.3 °F 58.7 °F 29.87 in SE 1.2 mph 1.2 mph 85 % 0.00 in 0.0 W/m2 CLR
01:49 63.3 °F 58.7 °F 29.87 in Calm     85 % 0.00 in 0.0 W/m2 CLR
01:54 63.3 °F 58.7 °F 29.87 in Calm     85 % 0.00 in 0.0 W/m2 CLR
01:59 63.1 °F 58.5 °F 29.87 in Calm     85 % 0.00 in 0.0 W/m2 CLR
02:04 63.1 °F 58.5 °F 29.87 in Calm     85 % 0.00 in 0.0 W/m2 CLR
02:09 63.0 °F 58.7 °F 29.87 in Calm     86 % 0.00 in 0.0 W/m2 CLR
02:14 63.0 °F 58.7 °F 29.88 in Calm     86 % 0.00 in 0.0 W/m2 CLR
02:19 63.0 °F 58.7 °F 29.88 in South 1.2 mph 1.2 mph 86 % 0.00 in 0.0 W/m2 CLR
02:24 62.8 °F 58.5 °F 29.88 in SSW 1.7 mph 1.7 mph 86 % 0.00 in 0.0 W/m2 CLR
02:29 63.0 °F 58.7 °F 29.88 in South 1.2 mph 1.2 mph 86 % 0.00 in 0.0 W/m2 CLR
02:34 62.8 °F 58.5 °F 29.88 in SSE 2.3 mph 2.3 mph 86 % 0.00 in 0.0 W/m2 CLR
02:39 62.8 °F 58.5 °F 29.87 in Calm     86 % 0.00 in 0.0 W/m2 CLR
02:44 62.8 °F 58.5 °F 29.87 in Calm     86 % 0.00 in 0.0 W/m2 CLR
02:49 62.8 °F 58.9 °F 29.88 in SSE 1.2 mph   87 % 0.00 in 0.0 W/m2 CLR
02:54 62.6 °F 58.7 °F 29.88 in SSE 1.2 mph 1.2 mph 87 % 0.00 in 0.0 W/m2 CLR
02:59 62.6 °F 58.7 °F 29.88 in Calm     87 % 0.00 in 0.0 W/m2 CLR
03:04 62.6 °F 58.7 °F 29.87 in SE 1.2 mph 1.2 mph 87 % 0.00 in 0.0 W/m2 CLR
03:09 62.6 °F 58.7 °F 29.87 in SSE 2.3 mph   87 % 0.00 in 0.0 W/m2 CLR
03:14 62.4 °F 58.5 °F 29.87 in South 1.2 mph 1.2 mph 87 % 0.00 in 0.0 W/m2 CLR
03:19 62.4 °F 58.8 °F 29.87 in Calm     88 % 0.00 in 0.0 W/m2 CLR
03:24 62.2 °F 58.6 °F 29.87 in Calm     88 % 0.00 in 0.0 W/m2 CLR
03:29 62.4 °F 58.8 °F 29.87 in SSE 2.3 mph 2.3 mph 88 % 0.00 in 0.0 W/m2 CLR
03:34 62.2 °F 58.6 °F 29.87 in Calm     88 % 0.00 in 0.0 W/m2 CLR
03:39 62.2 °F 58.6 °F 29.87 in Calm     88 % 0.00 in 0.0 W/m2 CLR
03:44 62.2 °F 58.6 °F 29.87 in Calm     88 % 0.00 in 0.0 W/m2 CLR
03:49 62.1 °F 58.8 °F 29.87 in SW 1.2 mph 1.2 mph 89 % 0.00 in 0.0 W/m2 CLR
03:54 61.9 °F 58.6 °F 29.87 in Calm     89 % 0.00 in 0.0 W/m2 CLR
03:59 61.9 °F 58.6 °F 29.87 in Calm     89 % 0.00 in 0.0 W/m2 CLR
04:04 61.9 °F 58.6 °F 29.87 in Calm     89 % 0.00 in 0.0 W/m2 CLR
04:09 61.9 °F 58.6 °F 29.87 in Calm     89 % 0.00 in 0.0 W/m2 CLR
04:14 61.9 °F 58.6 °F 29.87 in South 2.3 mph 2.3 mph 89 % 0.00 in 0.0 W/m2 CLR
04:19 61.7 °F 58.4 °F 29.87 in South 1.2 mph 1.2 mph 89 % 0.00 in 0.0 W/m2 CLR
04:24 61.7 °F 58.7 °F 29.87 in Calm     90 % 0.00 in 0.0 W/m2 CLR
04:29 61.7 °F 58.7 °F 29.87 in Calm     90 % 0.00 in 0.0 W/m2 CLR
04:34 61.7 °F 58.7 °F 29.87 in Calm     90 % 0.00 in 0.0 W/m2 CLR
04:39 61.7 °F 58.7 °F 29.87 in South 2.3 mph   90 % 0.00 in 0.0 W/m2 CLR
04:40 61.7 °F 58.7 °F 29.87 in Calm     90 % 0.00 in 0.0 W/m2 CLR
04:45 61.5 °F 58.5 °F 29.87 in Calm     90 % 0.00 in 0.0 W/m2 CLR
04:50 61.5 °F 58.5 °F 29.87 in ESE 1.2 mph 1.2 mph 90 % 0.00 in 0.0 W/m2 CLR
04:55 61.5 °F 58.5 °F 29.87 in Calm     90 % 0.00 in 0.0 W/m2 CLR
05:00 61.3 °F 58.3 °F 29.87 in Calm     90 % 0.00 in 0.0 W/m2 CLR
05:05 61.3 °F 58.3 °F 29.88 in Calm     90 % 0.00 in 0.0 W/m2 CLR
05:10 61.3 °F 58.3 °F 29.88 in South 1.2 mph 1.2 mph 90 % 0.00 in 0.0 W/m2 CLR
05:15 61.2 °F 58.6 °F 29.89 in Calm     91 % 0.00 in 0.0 W/m2 CLR
05:20 61.2 °F 58.6 °F 29.89 in Calm     91 % 0.00 in 0.0 W/m2 CLR
05:25 61.0 °F 58.4 °F 29.89 in Calm     91 % 0.00 in 0.0 W/m2 CLR
05:30 61.0 °F 58.4 °F 29.89 in Calm     91 % 0.00 in 0.0 W/m2 CLR
05:35 61.0 °F 58.4 °F 29.89 in Calm     91 % 0.00 in 0.0 W/m2 CLR
05:40 60.8 °F 58.2 °F 29.89 in Calm     91 % 0.00 in 0.0 W/m2 CLR
05:45 60.8 °F 58.2 °F 29.89 in SSE 1.2 mph 1.2 mph 91 % 0.00 in 0.0 W/m2 CLR
05:50 60.8 °F 58.2 °F 29.89 in Calm     91 % 0.00 in 0.0 W/m2 CLR
05:55 61.0 °F 58.4 °F 29.89 in Calm     91 % 0.00 in 0.0 W/m2 CLR
Lake County Unofficial Weather
Compliments of Weather Underground - 512 kb